createdAt,value
2024-04-12T00:02:10.577Z,5.73
2024-04-12T00:04:38.401Z,5.50
2024-04-12T00:07:16.436Z,5.13
2024-04-12T00:09:45.609Z,6.07
2024-04-12T00:12:14.055Z,6.40
2024-04-12T00:14:45.986Z,6.10
2024-04-12T00:17:18.287Z,6.30
2024-04-12T00:19:47.481Z,5.93
2024-04-12T00:22:16.129Z,6.87
2024-04-12T00:24:43.634Z,5.37
2024-04-12T00:27:11.455Z,5.30
2024-04-12T00:29:39.717Z,5.60
2024-04-12T00:32:17.722Z,4.83
2024-04-12T00:34:49.881Z,5.10
2024-04-12T00:37:18.301Z,6.13
2024-04-12T00:39:51.531Z,5.60
2024-04-12T00:42:33.979Z,5.63
2024-04-12T00:45:05.039Z,5.67
2024-04-12T00:47:35.335Z,5.37
2024-04-12T00:50:05.940Z,4.73
2024-04-12T00:52:35.281Z,5.00
2024-04-12T00:55:11.409Z,5.60
2024-04-12T00:57:40.764Z,5.73
2024-04-12T01:00:21.261Z,5.10
2024-04-12T01:02:50.780Z,5.37
2024-04-12T01:05:20.128Z,5.93
2024-04-12T01:07:52.507Z,5.50
2024-04-12T01:10:26.065Z,5.30
2024-04-12T01:12:58.975Z,6.10
2024-04-12T01:15:30.859Z,5.23
2024-04-12T01:18:07.252Z,5.37
2024-04-12T01:20:36.532Z,4.50
2024-04-12T01:23:06.289Z,5.63
2024-04-12T01:25:35.577Z,5.67
2024-04-12T01:28:05.907Z,5.17
2024-04-12T01:30:35.805Z,5.47
2024-04-12T01:33:03.443Z,4.67
2024-04-12T01:35:35.236Z,5.30
2024-04-12T01:38:19.879Z,5.30
2024-04-12T01:40:58.526Z,4.87
2024-04-12T01:43:28.736Z,4.70
2024-04-12T01:45:56.437Z,5.53
2024-04-12T01:48:24.315Z,5.77
2024-04-12T01:50:54.440Z,5.60
2024-04-12T01:53:24.410Z,5.03
2024-04-12T01:55:52.137Z,6.37
2024-04-12T01:58:22.553Z,5.07
2024-04-12T02:00:53.810Z,5.40
2024-04-12T02:03:21.050Z,5.40
2024-04-12T02:05:51.123Z,4.87
2024-04-12T02:08:19.348Z,6.43
2024-04-12T02:10:50.894Z,5.00
2024-04-12T02:13:19.902Z,4.93
2024-04-12T02:15:50.215Z,4.77
2024-04-12T02:18:21.776Z,4.47
2024-04-12T02:20:51.097Z,4.13
2024-04-12T02:23:20.640Z,4.40
2024-04-12T02:25:50.951Z,4.83
2024-04-12T02:28:19.086Z,4.50
2024-04-12T02:30:58.479Z,4.93
2024-04-12T02:33:28.870Z,5.37
2024-04-12T02:36:13.706Z,4.80
2024-04-12T02:38:43.068Z,4.80
2024-04-12T02:41:15.754Z,4.93
2024-04-12T02:43:53.412Z,5.30
2024-04-12T02:46:21.556Z,4.73
2024-04-12T02:48:48.949Z,5.20
2024-04-12T02:51:23.694Z,5.13
2024-04-12T02:53:52.985Z,4.00
2024-04-12T02:56:25.897Z,4.30
2024-04-12T02:58:53.965Z,4.50
2024-04-12T03:01:23.581Z,3.80
2024-04-12T03:03:53.110Z,4.97
2024-04-12T03:06:24.231Z,4.93
2024-04-12T03:09:01.867Z,4.77
2024-04-12T03:11:35.792Z,5.10
2024-04-12T03:14:11.702Z,5.37
2024-04-12T03:16:44.225Z,4.90
2024-04-12T03:19:13.637Z,5.13
2024-04-12T03:21:43.381Z,4.97
2024-04-12T03:24:10.920Z,4.80
2024-04-12T03:26:38.612Z,4.90
2024-04-12T03:29:07.215Z,5.30
2024-04-12T03:31:40.222Z,5.40
2024-04-12T03:34:08.345Z,4.90
2024-04-12T03:36:57.618Z,5.30
2024-04-12T03:39:25.116Z,3.90
2024-04-12T03:42:10.112Z,4.40
2024-04-12T03:44:39.102Z,5.10
2024-04-12T03:47:12.931Z,4.03
2024-04-12T03:49:42.804Z,4.90
2024-04-12T03:52:13.988Z,4.00
2024-04-12T03:54:42.755Z,4.10
2024-04-12T03:57:11.395Z,4.00
2024-04-12T03:59:45.941Z,4.77
2024-04-12T04:02:15.805Z,3.90
2024-04-12T04:04:47.740Z,3.77
2024-04-12T04:07:20.269Z,4.03
2024-04-12T04:09:48.319Z,4.10
2024-04-12T04:12:19.091Z,3.87
2024-04-12T04:14:52.393Z,3.87
2024-04-12T04:17:20.806Z,3.93
2024-04-12T04:19:52.939Z,4.00
2024-04-12T04:22:23.759Z,4.30
2024-04-12T04:24:54.225Z,3.50
2024-04-12T04:27:26.248Z,3.70
2024-04-12T04:29:57.746Z,3.10
2024-04-12T04:32:28.055Z,3.33
2024-04-12T04:34:58.662Z,3.33
2024-04-12T04:37:33.678Z,3.77
2024-04-12T04:40:10.754Z,3.73
2024-04-12T04:42:39.142Z,3.70
2024-04-12T04:45:09.987Z,3.53
2024-04-12T04:47:41.046Z,3.80
2024-04-12T04:50:11.395Z,3.53
2024-04-12T04:52:39.458Z,3.73
2024-04-12T04:55:13.395Z,3.00
2024-04-12T04:57:50.981Z,2.53
2024-04-12T05:00:24.280Z,3.43
2024-04-12T05:02:53.510Z,3.30
2024-04-12T05:05:30.443Z,3.50
2024-04-12T05:07:59.284Z,3.10
2024-04-12T05:10:36.005Z,3.13
2024-04-12T05:13:05.655Z,2.63
2024-04-12T05:15:50.950Z,2.67
2024-04-12T05:18:18.230Z,2.70
2024-04-12T05:20:45.681Z,4.37
2024-04-12T05:23:14.544Z,3.67
2024-04-12T05:25:42.823Z,3.20
2024-04-12T05:28:09.956Z,3.17
2024-04-12T05:30:44.552Z,3.10
2024-04-12T05:33:13.445Z,4.33
2024-04-12T05:35:42.041Z,3.83
2024-04-12T05:38:09.643Z,3.00
2024-04-12T05:40:53.133Z,3.10
2024-04-12T05:43:24.086Z,3.30
2024-04-12T05:45:52.515Z,3.50
2024-04-12T05:48:24.191Z,3.30
2024-04-12T05:50:56.098Z,3.40
2024-04-12T05:53:34.681Z,3.70
2024-04-12T05:56:31.780Z,3.40
2024-04-12T05:58:58.860Z,3.63
2024-04-12T06:01:27.172Z,3.20
2024-04-12T06:03:56.345Z,3.80
2024-04-12T06:06:24.770Z,2.97
2024-04-12T06:08:54.593Z,2.93
2024-04-12T06:11:22.983Z,2.70
2024-04-12T06:13:55.497Z,2.87
2024-04-12T06:16:23.513Z,2.77
2024-04-12T06:18:52.354Z,2.80
2024-04-12T06:21:19.988Z,2.20
2024-04-12T06:23:50.717Z,2.80
2024-04-12T06:26:17.962Z,2.57
2024-04-12T06:28:46.035Z,2.77
2024-04-12T06:31:21.555Z,2.97
2024-04-12T06:33:51.096Z,2.97
2024-04-12T06:36:18.353Z,2.90
2024-04-12T06:38:45.772Z,3.10
2024-04-12T06:41:16.580Z,3.40
2024-04-12T06:43:46.751Z,3.23
2024-04-12T06:46:15.004Z,3.87
2024-04-12T06:48:43.672Z,3.83
2024-04-12T06:51:14.542Z,4.07
2024-04-12T06:53:46.268Z,3.87
2024-04-12T06:56:17.537Z,3.70
2024-04-12T06:58:50.421Z,3.63
2024-04-12T07:01:23.670Z,6.17
2024-04-12T07:03:54.460Z,4.40
2024-04-12T07:06:21.856Z,4.20
2024-04-12T07:08:52.252Z,4.60
2024-04-12T07:11:25.824Z,4.67
2024-04-12T07:13:54.515Z,5.30
2024-04-12T07:16:22.429Z,5.07
2024-04-12T07:18:52.568Z,4.57
2024-04-12T07:21:24.711Z,3.67
2024-04-12T07:23:52.441Z,3.73
2024-04-12T07:26:26.051Z,3.30
2024-04-12T07:29:01.439Z,3.20
2024-04-12T07:31:40.795Z,2.70
2024-04-12T07:34:08.223Z,2.20
2024-04-12T07:36:36.469Z,2.77
2024-04-12T07:39:05.966Z,2.10
2024-04-12T07:41:45.483Z,1.80
2024-04-12T07:44:16.720Z,2.20
2024-04-12T07:46:54.036Z,2.30
2024-04-12T07:49:21.371Z,2.47
2024-04-12T07:51:49.020Z,3.43
2024-04-12T07:54:17.337Z,2.83
2024-04-12T07:57:08.843Z,3.20
2024-04-12T07:59:39.645Z,4.30
2024-04-12T08:02:10.801Z,4.07
2024-04-12T08:04:39.649Z,4.03
2024-04-12T08:07:19.274Z,4.27
2024-04-12T08:09:47.617Z,4.73
2024-04-12T08:12:16.652Z,4.47
2024-04-12T08:14:55.444Z,5.23
2024-04-12T08:17:27.354Z,5.03
2024-04-12T08:19:57.375Z,5.00
2024-04-12T08:22:27.330Z,5.50
2024-04-12T08:24:55.767Z,4.47
2024-04-12T08:27:29.408Z,4.90
2024-04-12T08:30:00.059Z,5.13
2024-04-12T08:32:32.992Z,3.60
2024-04-12T08:35:05.279Z,3.87
2024-04-12T08:37:34.113Z,4.20
2024-04-12T08:40:09.736Z,2.80
2024-04-12T08:42:38.038Z,3.10
2024-04-12T08:45:15.330Z,2.30
2024-04-12T08:47:57.005Z,2.63
2024-04-12T08:50:26.215Z,2.73
2024-04-12T08:52:55.634Z,2.40
2024-04-12T08:55:30.155Z,2.97
2024-04-12T08:58:02.772Z,2.80
2024-04-12T09:00:34.545Z,2.87
2024-04-12T09:03:26.971Z,2.43
2024-04-12T09:05:54.943Z,2.90
2024-04-12T09:08:23.867Z,2.97
2024-04-12T09:10:54.803Z,2.40
2024-04-12T09:13:22.881Z,2.10
2024-04-12T09:15:51.981Z,3.87
2024-04-12T09:18:28.847Z,2.40
2024-04-12T09:21:07.818Z,2.30
2024-04-12T09:23:37.434Z,2.60
2024-04-12T09:26:25.039Z,2.73
2024-04-12T09:29:11.844Z,2.87
2024-04-12T09:31:59.261Z,2.40
2024-04-12T09:34:37.728Z,2.00
2024-04-12T09:37:27.203Z,1.67
2024-04-12T09:40:04.721Z,1.60
2024-04-12T09:42:54.291Z,1.50
2024-04-12T09:45:29.043Z,2.13
2024-04-12T09:48:36.632Z,1.70
2024-04-12T09:51:23.354Z,1.80
2024-04-12T09:54:09.341Z,2.27
2024-04-12T09:56:56.613Z,2.60
2024-04-12T09:59:50.071Z,2.13
2024-04-12T10:02:40.001Z,2.50
2024-04-12T10:05:29.220Z,3.20
2024-04-12T10:08:21.721Z,3.17
2024-04-12T10:11:08.805Z,3.80
2024-04-12T10:13:56.650Z,4.03
2024-04-12T10:16:42.313Z,4.50
2024-04-12T10:19:29.487Z,3.77
2024-04-12T10:22:25.263Z,4.60
2024-04-12T10:25:14.233Z,4.70
2024-04-12T10:28:08.433Z,4.07
2024-04-12T10:31:02.640Z,3.90
2024-04-12T10:33:48.776Z,4.20
2024-04-12T10:36:34.768Z,5.03
2024-04-12T10:39:02.141Z,5.40
2024-04-12T10:41:36.761Z,4.80
2024-04-12T10:44:06.541Z,5.33
2024-04-12T10:46:34.746Z,5.57
2024-04-12T10:49:02.124Z,5.13
2024-04-12T10:51:30.032Z,5.27
2024-04-12T10:53:58.550Z,6.00
2024-04-12T10:56:28.304Z,5.33
2024-04-12T10:58:58.183Z,5.60
2024-04-12T11:01:28.451Z,5.63
2024-04-12T11:04:00.782Z,6.30
2024-04-12T11:06:33.603Z,5.37
2024-04-12T11:09:09.777Z,5.10
2024-04-12T11:11:45.619Z,5.77
2024-04-12T11:14:29.553Z,6.17
2024-04-12T11:17:17.410Z,6.30
2024-04-12T11:20:04.169Z,6.40
2024-04-12T11:22:49.985Z,5.50
2024-04-12T11:25:35.723Z,5.73
2024-04-12T11:28:24.374Z,5.50
2024-04-12T11:31:09.003Z,5.53
2024-04-12T11:33:47.656Z,6.70
2024-04-12T11:36:22.337Z,6.20
2024-04-12T11:38:51.679Z,6.20
2024-04-12T11:41:23.319Z,7.27
2024-04-12T11:43:52.824Z,6.30
2024-04-12T11:46:25.316Z,5.27
2024-04-12T11:48:55.537Z,5.10
2024-04-12T11:51:23.316Z,4.80
2024-04-12T11:53:52.063Z,4.60
2024-04-12T11:56:19.352Z,5.07
2024-04-12T11:58:46.612Z,4.47
2024-04-12T12:01:14.809Z,4.20
2024-04-12T12:03:42.327Z,3.53
2024-04-12T12:06:09.735Z,3.77
2024-04-12T12:08:43.303Z,3.57
2024-04-12T12:11:11.723Z,3.30
2024-04-12T12:13:38.810Z,3.60
2024-04-12T12:16:07.548Z,2.87
2024-04-12T12:18:37.881Z,3.40
2024-04-12T12:21:05.440Z,2.70
2024-04-12T12:23:32.491Z,3.33
2024-04-12T12:25:59.920Z,2.70
2024-04-12T12:28:28.288Z,2.33
2024-04-12T12:30:58.846Z,2.77
2024-04-12T12:33:35.174Z,2.43
2024-04-12T12:36:07.118Z,3.00
2024-04-12T12:38:41.539Z,2.67
2024-04-12T12:41:10.035Z,2.50
2024-04-12T12:43:42.084Z,2.13
2024-04-12T12:46:09.280Z,2.50
2024-04-12T12:48:36.623Z,3.20
2024-04-12T12:51:04.946Z,2.30
2024-04-12T12:53:32.222Z,2.87
2024-04-12T12:55:59.317Z,2.80
2024-04-12T12:58:27.502Z,2.60
2024-04-12T13:01:01.662Z,2.70
2024-04-12T13:03:32.524Z,2.80
2024-04-12T13:06:08.104Z,2.47
2024-04-12T13:08:41.942Z,2.47
2024-04-12T13:11:10.103Z,2.77
2024-04-12T13:13:41.445Z,2.77
2024-04-12T13:16:12.777Z,2.30
2024-04-12T13:18:53.591Z,2.87
2024-04-12T13:21:21.125Z,2.90
2024-04-12T13:23:48.564Z,2.67
2024-04-12T13:26:26.637Z,3.17
2024-04-12T13:28:54.592Z,3.03
2024-04-12T13:31:25.203Z,2.20
2024-04-12T13:33:56.351Z,3.20
2024-04-12T13:36:24.561Z,2.70
2024-04-12T13:38:52.558Z,2.60
2024-04-12T13:41:23.170Z,3.43
2024-04-12T13:43:51.057Z,2.70
2024-04-12T13:46:40.799Z,3.10
2024-04-12T13:49:31.760Z,3.20
2024-04-12T13:52:01.581Z,2.70
2024-04-12T13:54:28.619Z,2.47
2024-04-12T13:56:58.095Z,2.73
2024-04-12T13:59:26.030Z,3.03
2024-04-12T14:01:53.397Z,3.00
2024-04-12T14:04:21.621Z,2.90
2024-04-12T14:06:48.994Z,3.07
2024-04-12T14:09:24.386Z,2.60
2024-04-12T14:11:52.658Z,2.73
2024-04-12T14:14:24.466Z,3.03
2024-04-12T14:16:53.620Z,3.00
2024-04-12T14:19:21.835Z,3.20
2024-04-12T14:21:53.649Z,3.10
2024-04-12T14:24:40.832Z,2.70
2024-04-12T14:27:08.352Z,3.03
2024-04-12T14:29:36.748Z,3.27
2024-04-12T14:32:07.389Z,3.20
2024-04-12T14:34:36.310Z,3.00
2024-04-12T14:37:04.954Z,3.97
2024-04-12T14:39:34.105Z,4.10
2024-04-12T14:42:02.786Z,2.87
2024-04-12T14:44:34.736Z,2.90
2024-04-12T14:47:06.234Z,3.07
2024-04-12T14:49:33.341Z,2.63
2024-04-12T14:52:02.607Z,2.80
2024-04-12T14:54:31.724Z,3.03
2024-04-12T14:56:59.060Z,3.60
2024-04-12T14:59:26.166Z,3.30
2024-04-12T15:01:53.335Z,3.63
2024-04-12T15:04:39.114Z,2.87
2024-04-12T15:07:24.844Z,2.80
2024-04-12T15:10:10.505Z,2.57
2024-04-12T15:12:56.394Z,3.17
2024-04-12T15:15:42.280Z,2.50
2024-04-12T15:18:28.301Z,3.07
2024-04-12T15:21:14.175Z,2.93
2024-04-12T15:23:59.711Z,2.67
2024-04-12T15:26:45.737Z,2.40
2024-04-12T15:29:31.280Z,3.40
2024-04-12T15:32:16.769Z,3.20
2024-04-12T15:35:02.439Z,3.60
2024-04-12T15:37:48.702Z,3.20
2024-04-12T15:40:34.293Z,2.70
2024-04-12T15:43:19.941Z,3.00
2024-04-12T15:46:05.803Z,2.70
2024-04-12T15:48:34.072Z,2.13
2024-04-12T15:51:02.077Z,2.93
2024-04-12T15:53:32.221Z,2.73
2024-04-12T15:56:22.273Z,3.43
2024-04-12T15:59:08.069Z,3.10
2024-04-12T16:01:53.816Z,3.47
2024-04-12T16:04:39.536Z,2.80
2024-04-12T16:07:25.224Z,3.17
2024-04-12T16:10:10.983Z,3.00
2024-04-12T16:12:39.469Z,3.23
2024-04-12T16:15:07.508Z,3.20
2024-04-12T16:17:34.822Z,2.80
2024-04-12T16:20:02.122Z,2.47
2024-04-12T16:22:29.161Z,4.43
2024-04-12T16:24:56.236Z,13.60
2024-04-12T16:27:24.978Z,18.20
2024-04-12T16:29:52.954Z,49.57
2024-04-12T16:32:20.289Z,18.33
2024-04-12T16:34:55.229Z,18.83
2024-04-12T16:37:22.376Z,14.03
2024-04-12T16:39:50.283Z,5.47
2024-04-12T16:42:17.498Z,3.40
2024-04-12T16:44:44.731Z,3.30
2024-04-12T16:47:11.931Z,3.87
2024-04-12T16:49:39.040Z,3.10
2024-04-12T16:52:06.369Z,2.83
2024-04-12T16:54:33.435Z,3.37
2024-04-12T16:57:00.797Z,3.43
2024-04-12T16:59:28.032Z,3.90
2024-04-12T17:01:55.161Z,3.07
2024-04-12T17:04:22.430Z,3.03
2024-04-12T17:06:49.573Z,2.90
2024-04-12T17:09:21.158Z,3.50
2024-04-12T17:11:48.549Z,3.70
2024-04-12T17:14:15.732Z,3.57
2024-04-12T17:16:42.900Z,2.50
2024-04-12T17:19:12.559Z,3.50
2024-04-12T17:21:39.716Z,2.73
2024-04-12T17:24:07.143Z,3.37
2024-04-12T17:26:34.323Z,2.60
2024-04-12T17:29:01.441Z,3.00
2024-04-12T17:31:28.585Z,3.43
2024-04-12T17:33:55.702Z,2.90
2024-04-12T17:36:23.277Z,2.50
2024-04-12T17:38:50.452Z,3.43
2024-04-12T17:41:20.220Z,2.40
2024-04-12T17:43:47.399Z,3.50
2024-04-12T17:46:16.127Z,3.00
2024-04-12T17:48:43.667Z,3.00
2024-04-12T17:51:11.079Z,2.83
2024-04-12T17:53:38.253Z,3.37
2024-04-12T17:56:05.976Z,2.97
2024-04-12T17:58:33.166Z,3.30
2024-04-12T18:01:04.813Z,2.90
2024-04-12T18:03:32.455Z,3.23
2024-04-12T18:05:59.693Z,3.60
2024-04-12T18:08:27.270Z,3.30
2024-04-12T18:11:02.459Z,2.57
2024-04-12T18:13:30.550Z,3.13
2024-04-12T18:15:58.560Z,3.50
2024-04-12T18:18:26.903Z,3.80
2024-04-12T18:20:55.703Z,4.53
2024-04-12T18:23:23.357Z,3.93
2024-04-12T18:25:57.639Z,4.00
2024-04-12T18:28:27.283Z,3.70
2024-04-12T18:30:55.026Z,3.60
2024-04-12T18:33:22.790Z,3.47
2024-04-12T18:35:51.345Z,3.67
2024-04-12T18:38:37.593Z,3.47
2024-04-12T18:41:23.697Z,3.90
2024-04-12T18:44:09.236Z,3.13
2024-04-12T18:46:36.268Z,4.20
2024-04-12T18:49:04.326Z,4.20
2024-04-12T18:51:32.109Z,5.40
2024-04-12T18:53:59.252Z,4.27
2024-04-12T18:56:26.869Z,4.10
2024-04-12T18:58:54.206Z,4.13
2024-04-12T19:01:22.548Z,4.33
2024-04-12T19:03:52.698Z,4.40
2024-04-12T19:06:20.667Z,5.13
2024-04-12T19:08:47.751Z,4.67
2024-04-12T19:11:15.164Z,4.30
2024-04-12T19:13:42.362Z,4.70
2024-04-12T19:16:09.487Z,5.10
2024-04-12T19:18:37.284Z,5.97
2024-04-12T19:21:06.570Z,5.10
2024-04-12T19:23:34.083Z,5.00
2024-04-12T19:26:01.133Z,4.67
2024-04-12T19:28:28.253Z,4.37
2024-04-12T19:30:55.303Z,8.73
2024-04-12T19:33:22.455Z,6.00
2024-04-12T19:35:57.074Z,5.80
2024-04-12T19:38:25.987Z,5.53
2024-04-12T19:40:57.793Z,5.17
2024-04-12T19:43:27.706Z,5.57
2024-04-12T19:45:55.833Z,5.50
2024-04-12T19:48:24.094Z,5.50
2024-04-12T19:50:51.171Z,4.97
2024-04-12T19:53:19.725Z,5.20
2024-04-12T19:56:00.429Z,4.80
2024-04-12T19:58:27.745Z,5.20
2024-04-12T20:00:56.131Z,5.00
2024-04-12T20:03:24.408Z,5.53
2024-04-12T20:05:53.029Z,5.17
2024-04-12T20:08:20.798Z,5.03
2024-04-12T20:10:58.125Z,5.90
2024-04-12T20:13:25.884Z,5.17
2024-04-12T20:16:07.743Z,4.97
2024-04-12T20:18:37.851Z,5.70
2024-04-12T20:21:06.826Z,5.40
2024-04-12T20:23:34.851Z,6.10
2024-04-12T20:26:19.947Z,5.30
2024-04-12T20:28:54.947Z,6.17
2024-04-12T20:31:35.596Z,5.50
2024-04-12T20:34:20.740Z,4.97
2024-04-12T20:36:47.901Z,5.13
2024-04-12T20:39:23.490Z,5.20
2024-04-12T20:41:55.741Z,5.03
2024-04-12T20:44:27.033Z,5.50
2024-04-12T20:46:55.578Z,6.00
2024-04-12T20:49:22.987Z,4.40
2024-04-12T20:51:53.261Z,5.40
2024-04-12T20:54:20.692Z,4.90
2024-04-12T20:56:52.149Z,5.17
2024-04-12T20:59:21.262Z,5.03
2024-04-12T21:01:51.699Z,4.83
2024-04-12T21:04:20.550Z,6.37
2024-04-12T21:06:49.306Z,6.57
2024-04-12T21:09:17.852Z,5.17
2024-04-12T21:11:48.676Z,6.93
2024-04-12T21:14:16.423Z,5.50
2024-04-12T21:16:45.674Z,6.03
2024-04-12T21:19:14.136Z,5.43
2024-04-12T21:21:41.411Z,6.03
2024-04-12T21:24:09.116Z,5.47
2024-04-12T21:26:36.525Z,5.67
2024-04-12T21:29:03.649Z,6.10
2024-04-12T21:31:30.821Z,5.47
2024-04-12T21:33:58.109Z,6.13
2024-04-12T21:36:26.734Z,6.63
2024-04-12T21:38:59.772Z,6.90
2024-04-12T21:41:28.562Z,5.57
2024-04-12T21:43:56.205Z,6.80
2024-04-12T21:46:26.629Z,7.23
2024-04-12T21:48:55.152Z,6.50
2024-04-12T21:51:29.436Z,6.70
2024-04-12T21:53:58.121Z,6.83
2024-04-12T21:56:25.270Z,7.77
2024-04-12T21:58:52.512Z,7.87
2024-04-12T22:01:20.600Z,6.47
2024-04-12T22:03:48.521Z,7.63
2024-04-12T22:06:15.936Z,7.67
2024-04-12T22:08:43.469Z,7.33
2024-04-12T22:11:11.081Z,8.00
2024-04-12T22:13:39.326Z,6.87
2024-04-12T22:16:10.605Z,7.37
2024-04-12T22:18:39.617Z,6.43
2024-04-12T22:21:09.599Z,7.17
2024-04-12T22:23:39.535Z,6.10
2024-04-12T22:26:11.827Z,6.77
2024-04-12T22:28:41.166Z,7.43
2024-04-12T22:31:09.495Z,7.90
2024-04-12T22:33:36.876Z,8.07
2024-04-12T22:36:11.227Z,7.43
2024-04-12T22:38:38.419Z,7.30
2024-04-12T22:41:06.724Z,7.10
2024-04-12T22:43:34.511Z,7.33
2024-04-12T22:46:01.595Z,7.50
2024-04-12T22:48:30.348Z,7.93
2024-04-12T22:50:58.039Z,7.30
2024-04-12T22:53:26.303Z,7.27
2024-04-12T22:55:53.388Z,7.80
2024-04-12T22:58:20.611Z,7.00
2024-04-12T23:00:47.738Z,6.50
2024-04-12T23:03:15.877Z,7.93
2024-04-12T23:05:43.255Z,6.70
2024-04-12T23:08:10.483Z,6.90
2024-04-12T23:10:37.619Z,7.23
2024-04-12T23:13:04.912Z,8.03
2024-04-12T23:15:32.121Z,7.53
2024-04-12T23:17:59.456Z,6.90
2024-04-12T23:20:29.599Z,6.47
2024-04-12T23:22:56.973Z,8.80
2024-04-12T23:25:24.170Z,6.77
2024-04-12T23:27:53.416Z,6.80
2024-04-12T23:30:20.796Z,8.07
2024-04-12T23:32:48.060Z,7.10
2024-04-12T23:35:15.502Z,7.60
2024-04-12T23:37:42.655Z,8.00
2024-04-12T23:40:10.000Z,6.30
2024-04-12T23:42:37.323Z,6.80
2024-04-12T23:45:05.324Z,6.73
2024-04-12T23:47:32.615Z,7.17
2024-04-12T23:50:01.142Z,7.67
2024-04-12T23:52:28.395Z,6.93
2024-04-12T23:54:57.067Z,7.07
2024-04-12T23:57:24.468Z,6.93
2024-04-12T23:59:51.482Z,7.60
